FIN811 EFHK-ESSA
Flight info
| Callsign | FIN811 |
|---|---|
| Flight time | 0h 42m |
| Altitude | 30000 |
| Route | ADIVO Y365 POGOK DCT RUNGA N872 XILAN |
| Aircraft | A20N/M-SDE2E3FGHIRWXY/LB1 |
Departure
| Time | 2026-04-20 15:29 |
|---|---|
| Airport | Helsinki Vantaa Airport (EFHK) |
Arrival
| Time | 2026-04-20 16:11 |
|---|---|
| Airport | Stockholm-Arlanda Airport (ESSA) |
| Time | Latitude | Longitude | Altitude | Speed | Heading |
|---|---|---|---|---|---|
| 2026-04-20 14:57 | 60.31864 | 24.96999 | 154 ft | 0 kts | 244° |
| 2026-04-20 15:18 | 60.31872 | 24.97038 | 161 ft | 4 kts | 252° |
| 2026-04-20 15:18 | 60.31878 | 24.97091 | 161 ft | 4 kts | 270° |
| 2026-04-20 15:18 | 60.31873 | 24.97141 | 161 ft | 4 kts | 314° |
| 2026-04-20 15:19 | 60.31868 | 24.97151 | 161 ft | 2 kts | 332° |
| 2026-04-20 15:19 | 60.31867 | 24.97153 | 161 ft | 0 kts | 333° |
| 2026-04-20 15:22 | 60.31867 | 24.97152 | 161 ft | 1 kts | 333° |
| 2026-04-20 15:23 | 60.31894 | 24.97125 | 161 ft | 9 kts | 333° |
| 2026-04-20 15:23 | 60.31978 | 24.97038 | 161 ft | 16 kts | 332° |
| 2026-04-20 15:23 | 60.32086 | 24.96922 | 161 ft | 19 kts | 331° |
| 2026-04-20 15:23 | 60.32198 | 24.96789 | 161 ft | 15 kts | 330° |
| 2026-04-20 15:24 | 60.32247 | 24.96658 | 161 ft | 6 kts | 244° |
| 2026-04-20 15:24 | 60.32215 | 24.96591 | 161 ft | 9 kts | 227° |
| 2026-04-20 15:24 | 60.32166 | 24.96484 | 161 ft | 12 kts | 227° |
| 2026-04-20 15:24 | 60.32099 | 24.96338 | 161 ft | 16 kts | 229° |
| 2026-04-20 15:25 | 60.32018 | 24.96157 | 161 ft | 19 kts | 228° |
| 2026-04-20 15:25 | 60.31925 | 24.95945 | 161 ft | 22 kts | 226° |
| 2026-04-20 15:25 | 60.31816 | 24.95713 | 161 ft | 23 kts | 227° |
| 2026-04-20 15:25 | 60.31703 | 24.95459 | 161 ft | 24 kts | 228° |
| 2026-04-20 15:26 | 60.31587 | 24.95204 | 161 ft | 26 kts | 227° |
| 2026-04-20 15:26 | 60.31467 | 24.94938 | 161 ft | 27 kts | 228° |
| 2026-04-20 15:26 | 60.31346 | 24.94681 | 161 ft | 26 kts | 226° |
| 2026-04-20 15:26 | 60.31221 | 24.94404 | 161 ft | 28 kts | 227° |
| 2026-04-20 15:27 | 60.31094 | 24.94124 | 161 ft | 22 kts | 229° |
| 2026-04-20 15:27 | 60.31037 | 24.93897 | 161 ft | 19 kts | 275° |
| 2026-04-20 15:27 | 60.31121 | 24.93721 | 160 ft | 18 kts | 338° |
| 2026-04-20 15:27 | 60.31193 | 24.93771 | 161 ft | 0 kts | 47° |
| 2026-04-20 15:28 | 60.31353 | 24.94124 | 163 ft | 70 kts | 48° |
| 2026-04-20 15:28 | 60.31819 | 24.95160 | 163 ft | 127 kts | 48° |
| 2026-04-20 15:29 | 60.32493 | 24.96664 | 386 ft | 151 kts | 45° |
| 2026-04-20 15:29 | 60.33189 | 24.98256 | 927 ft | 153 kts | 45° |
| 2026-04-20 15:29 | 60.33893 | 24.99862 | 1541 ft | 156 kts | 46° |
| 2026-04-20 15:29 | 60.34618 | 25.01521 | 2218 ft | 159 kts | 46° |
| 2026-04-20 15:30 | 60.35372 | 25.03270 | 2763 ft | 171 kts | 48° |
| 2026-04-20 15:30 | 60.36160 | 25.05267 | 3113 ft | 196 kts | 50° |
| 2026-04-20 15:30 | 60.37069 | 25.07526 | 3642 ft | 218 kts | 45° |
| 2026-04-20 15:30 | 60.38201 | 25.09825 | 4215 ft | 242 kts | 43° |
| 2026-04-20 15:31 | 60.39549 | 25.11948 | 5173 ft | 249 kts | 26° |
| 2026-04-20 15:31 | 60.41204 | 25.12886 | 6303 ft | 253 kts | 6° |
| 2026-04-20 15:31 | 60.42996 | 25.12928 | 7300 ft | 259 kts | 2° |
| 2026-04-20 15:31 | 60.44809 | 25.12954 | 8346 ft | 262 kts | 3° |
| 2026-04-20 15:32 | 60.46647 | 25.12963 | 9375 ft | 267 kts | 359° |
| 2026-04-20 15:32 | 60.48455 | 25.11909 | 10356 ft | 279 kts | 334° |
| 2026-04-20 15:32 | 60.49925 | 25.09240 | 11238 ft | 294 kts | 308° |
| 2026-04-20 15:32 | 60.50732 | 25.05365 | 12094 ft | 308 kts | 283° |
| 2026-04-20 15:33 | 60.50887 | 25.00924 | 12745 ft | 326 kts | 273° |
| 2026-04-20 15:33 | 60.50845 | 24.96131 | 13047 ft | 351 kts | 270° |
| 2026-04-20 15:33 | 60.50740 | 24.91040 | 13487 ft | 369 kts | 266° |
| 2026-04-20 15:33 | 60.50261 | 24.85863 | 14273 ft | 377 kts | 255° |
| 2026-04-20 15:34 | 60.49301 | 24.80874 | 15029 ft | 383 kts | 244° |
| 2026-04-20 15:34 | 60.48138 | 24.75984 | 15766 ft | 388 kts | 245° |
| 2026-04-20 15:34 | 60.46973 | 24.71008 | 16502 ft | 393 kts | 245° |
| 2026-04-20 15:34 | 60.45799 | 24.65961 | 17233 ft | 398 kts | 245° |
| 2026-04-20 15:35 | 60.44613 | 24.60866 | 17932 ft | 403 kts | 245° |
| 2026-04-20 15:35 | 60.43407 | 24.55695 | 18637 ft | 408 kts | 244° |
| 2026-04-20 15:35 | 60.42183 | 24.50468 | 19251 ft | 413 kts | 244° |
| 2026-04-20 15:35 | 60.40940 | 24.45178 | 19856 ft | 418 kts | 244° |
| 2026-04-20 15:36 | 60.39681 | 24.39833 | 20444 ft | 423 kts | 244° |
| 2026-04-20 15:36 | 60.38405 | 24.34434 | 21026 ft | 428 kts | 244° |
| 2026-04-20 15:36 | 60.37108 | 24.28958 | 21632 ft | 433 kts | 244° |
| 2026-04-20 15:36 | 60.35816 | 24.23518 | 22199 ft | 438 kts | 244° |
| 2026-04-20 15:37 | 60.34490 | 24.17952 | 22779 ft | 443 kts | 244° |
| 2026-04-20 15:37 | 60.33145 | 24.12316 | 23357 ft | 447 kts | 244° |
| 2026-04-20 15:37 | 60.31798 | 24.06691 | 23912 ft | 452 kts | 244° |
| 2026-04-20 15:37 | 60.30437 | 24.00930 | 24397 ft | 456 kts | 246° |
| 2026-04-20 15:38 | 60.29381 | 23.94797 | 24914 ft | 459 kts | 256° |
| 2026-04-20 15:38 | 60.28694 | 23.88585 | 25380 ft | 462 kts | 259° |
| 2026-04-20 15:38 | 60.28020 | 23.82235 | 25846 ft | 465 kts | 259° |
| 2026-04-20 15:38 | 60.27333 | 23.75833 | 26314 ft | 469 kts | 258° |
| 2026-04-20 15:39 | 60.26632 | 23.69384 | 26761 ft | 472 kts | 258° |
| 2026-04-20 15:39 | 60.25922 | 23.62905 | 27204 ft | 476 kts | 258° |
| 2026-04-20 15:39 | 60.25204 | 23.56394 | 27632 ft | 479 kts | 258° |
| 2026-04-20 15:39 | 60.24475 | 23.49826 | 28054 ft | 482 kts | 258° |
| 2026-04-20 15:40 | 60.23737 | 23.43210 | 28464 ft | 485 kts | 258° |
| 2026-04-20 15:40 | 60.22991 | 23.36549 | 28864 ft | 489 kts | 258° |
| 2026-04-20 15:40 | 60.22239 | 23.29876 | 29245 ft | 492 kts | 258° |
| 2026-04-20 15:40 | 60.21477 | 23.23144 | 29602 ft | 495 kts | 258° |
| 2026-04-20 15:41 | 60.20708 | 23.16381 | 29982 ft | 497 kts | 257° |
| 2026-04-20 15:41 | 60.20194 | 23.11883 | 30214 ft | 499 kts | 257° |
| 2026-04-20 15:41 | 60.18298 | 22.95402 | 30321 ft | 500 kts | 257° |
| 2026-04-20 15:42 | 60.17509 | 22.88602 | 30323 ft | 500 kts | 257° |
| 2026-04-20 15:42 | 60.15921 | 22.75016 | 30327 ft | 500 kts | 257° |
| 2026-04-20 15:43 | 60.14318 | 22.61442 | 30325 ft | 499 kts | 257° |
| 2026-04-20 15:43 | 60.12712 | 22.47978 | 30324 ft | 499 kts | 256° |
| 2026-04-20 15:44 | 60.11072 | 22.34366 | 30327 ft | 499 kts | 256° |
| 2026-04-20 15:44 | 60.09438 | 22.20925 | 30332 ft | 499 kts | 256° |
| 2026-04-20 15:45 | 60.07779 | 22.07412 | 30332 ft | 499 kts | 256° |
| 2026-04-20 15:45 | 60.06110 | 21.93940 | 30333 ft | 499 kts | 256° |
| 2026-04-20 15:46 | 60.04426 | 21.80466 | 30337 ft | 498 kts | 256° |
| 2026-04-20 15:46 | 60.02741 | 21.67110 | 30343 ft | 497 kts | 255° |
| 2026-04-20 15:47 | 60.01046 | 21.53794 | 30346 ft | 497 kts | 255° |
| 2026-04-20 15:47 | 59.99330 | 21.40435 | 30354 ft | 496 kts | 255° |
| 2026-04-20 15:48 | 59.97551 | 21.27235 | 30360 ft | 495 kts | 253° |
| 2026-04-20 15:48 | 59.95688 | 21.14029 | 30358 ft | 494 kts | 253° |
| 2026-04-20 15:49 | 59.93827 | 21.00848 | 30362 ft | 493 kts | 253° |
| 2026-04-20 15:49 | 59.91964 | 20.87702 | 30368 ft | 492 kts | 253° |
| 2026-04-20 15:50 | 59.90095 | 20.74612 | 29981 ft | 489 kts | 253° |
| 2026-04-20 15:50 | 59.89160 | 20.68108 | 29222 ft | 489 kts | 253° |
| 2026-04-20 15:50 | 59.88219 | 20.61591 | 28271 ft | 490 kts | 253° |
| 2026-04-20 15:50 | 59.87273 | 20.55062 | 27427 ft | 489 kts | 253° |
| 2026-04-20 15:51 | 59.86346 | 20.48683 | 26947 ft | 479 kts | 253° |
| 2026-04-20 15:51 | 59.85425 | 20.42374 | 26430 ft | 471 kts | 253° |
| 2026-04-20 15:51 | 59.84517 | 20.36175 | 25861 ft | 464 kts | 253° |
| 2026-04-20 15:51 | 59.83615 | 20.30047 | 25321 ft | 458 kts | 253° |
| 2026-04-20 15:52 | 59.82722 | 20.24000 | 24771 ft | 453 kts | 253° |
| 2026-04-20 15:52 | 59.81839 | 20.18040 | 24236 ft | 447 kts | 253° |
| 2026-04-20 15:52 | 59.80978 | 20.12256 | 23665 ft | 442 kts | 254° |
| 2026-04-20 15:53 | 59.79525 | 20.02532 | 22761 ft | 430 kts | 253° |
| 2026-04-20 15:53 | 59.78677 | 19.96883 | 22233 ft | 424 kts | 253° |
| 2026-04-20 15:53 | 59.77838 | 19.91316 | 21727 ft | 418 kts | 253° |
| 2026-04-20 15:53 | 59.77009 | 19.85828 | 21216 ft | 412 kts | 254° |
| 2026-04-20 15:54 | 59.76189 | 19.80419 | 20711 ft | 407 kts | 253° |
| 2026-04-20 15:54 | 59.75377 | 19.75076 | 20385 ft | 405 kts | 253° |
| 2026-04-20 15:54 | 59.74572 | 19.69739 | 19956 ft | 405 kts | 255° |
| 2026-04-20 15:54 | 59.73813 | 19.64320 | 19244 ft | 408 kts | 256° |
| 2026-04-20 15:55 | 59.73080 | 19.58887 | 18653 ft | 407 kts | 256° |
| 2026-04-20 15:55 | 59.72357 | 19.53535 | 18316 ft | 396 kts | 256° |
| 2026-04-20 15:55 | 59.71643 | 19.48306 | 18045 ft | 394 kts | 256° |
| 2026-04-20 15:55 | 59.70921 | 19.43066 | 17720 ft | 394 kts | 255° |
| 2026-04-20 15:56 | 59.70191 | 19.37819 | 17097 ft | 396 kts | 255° |
| 2026-04-20 15:56 | 59.69452 | 19.32531 | 16217 ft | 401 kts | 255° |
| 2026-04-20 15:56 | 59.68703 | 19.27194 | 15443 ft | 402 kts | 255° |
| 2026-04-20 15:56 | 59.67957 | 19.21903 | 14923 ft | 396 kts | 255° |
| 2026-04-20 15:57 | 59.67220 | 19.16694 | 14405 ft | 390 kts | 255° |
| 2026-04-20 15:57 | 59.66492 | 19.11567 | 13863 ft | 385 kts | 255° |
| 2026-04-20 15:57 | 59.65773 | 19.06511 | 13357 ft | 378 kts | 255° |
| 2026-04-20 15:57 | 59.65068 | 19.01563 | 12854 ft | 372 kts | 255° |
| 2026-04-20 15:58 | 59.64370 | 18.96690 | 12500 ft | 363 kts | 255° |
| 2026-04-20 15:58 | 59.63687 | 18.91930 | 12403 ft | 360 kts | 255° |
| 2026-04-20 15:58 | 59.63006 | 18.87198 | 12395 ft | 363 kts | 255° |
| 2026-04-20 15:58 | 59.62308 | 18.82359 | 12393 ft | 361 kts | 255° |
| 2026-04-20 15:59 | 59.61616 | 18.77577 | 12393 ft | 362 kts | 255° |
| 2026-04-20 15:59 | 59.60914 | 18.72801 | 12394 ft | 362 kts | 255° |
| 2026-04-20 15:59 | 59.60186 | 18.68039 | 12389 ft | 363 kts | 250° |
| 2026-04-20 15:59 | 59.59007 | 18.63648 | 12298 ft | 361 kts | 238° |
| 2026-04-20 16:00 | 59.57673 | 18.59476 | 11941 ft | 358 kts | 238° |
| 2026-04-20 16:00 | 59.56345 | 18.55343 | 11212 ft | 355 kts | 237° |
| 2026-04-20 16:00 | 59.55048 | 18.51303 | 10591 ft | 348 kts | 238° |
| 2026-04-20 16:00 | 59.53804 | 18.47431 | 10367 ft | 329 kts | 237° |
| 2026-04-20 16:01 | 59.52612 | 18.43734 | 10170 ft | 311 kts | 238° |
| 2026-04-20 16:01 | 59.51476 | 18.40216 | 9706 ft | 303 kts | 237° |
| 2026-04-20 16:01 | 59.50345 | 18.36734 | 9122 ft | 300 kts | 237° |
| 2026-04-20 16:01 | 59.49221 | 18.33287 | 8524 ft | 298 kts | 237° |
| 2026-04-20 16:02 | 59.48102 | 18.29873 | 7993 ft | 295 kts | 237° |
| 2026-04-20 16:02 | 59.46988 | 18.26497 | 7442 ft | 292 kts | 237° |
| 2026-04-20 16:02 | 59.45885 | 18.23165 | 6932 ft | 289 kts | 237° |
| 2026-04-20 16:02 | 59.44782 | 18.19865 | 6407 ft | 289 kts | 237° |
| 2026-04-20 16:03 | 59.43665 | 18.16539 | 5804 ft | 295 kts | 237° |
| 2026-04-20 16:03 | 59.42516 | 18.13141 | 5191 ft | 301 kts | 237° |
| 2026-04-20 16:03 | 59.41343 | 18.09684 | 4522 ft | 306 kts | 237° |
| 2026-04-20 16:03 | 59.40160 | 18.06215 | 4121 ft | 303 kts | 237° |
| 2026-04-20 16:04 | 59.39026 | 18.02824 | 4002 ft | 289 kts | 244° |
| 2026-04-20 16:04 | 59.38489 | 17.99222 | 4003 ft | 266 kts | 266° |
| 2026-04-20 16:04 | 59.38310 | 17.95689 | 3990 ft | 254 kts | 267° |
| 2026-04-20 16:04 | 59.38140 | 17.92335 | 3997 ft | 240 kts | 268° |
| 2026-04-20 16:05 | 59.38323 | 17.89259 | 3991 ft | 219 kts | 299° |
| 2026-04-20 16:05 | 59.39339 | 17.87225 | 3995 ft | 211 kts | 341° |
| 2026-04-20 16:05 | 59.40755 | 17.86997 | 4001 ft | 206 kts | 11° |
| 2026-04-20 16:05 | 59.42153 | 17.87575 | 3996 ft | 204 kts | 14° |
| 2026-04-20 16:06 | 59.43493 | 17.88161 | 3988 ft | 191 kts | 13° |
| 2026-04-20 16:06 | 59.44762 | 17.88636 | 3907 ft | 177 kts | 12° |
| 2026-04-20 16:06 | 59.45948 | 17.89061 | 3636 ft | 171 kts | 12° |
| 2026-04-20 16:06 | 59.47129 | 17.89489 | 3382 ft | 171 kts | 12° |
| 2026-04-20 16:07 | 59.48287 | 17.89902 | 3135 ft | 166 kts | 12° |
| 2026-04-20 16:07 | 59.49361 | 17.90283 | 2909 ft | 149 kts | 12° |
| 2026-04-20 16:07 | 59.50330 | 17.90636 | 2698 ft | 134 kts | 12° |
| 2026-04-20 16:07 | 59.51221 | 17.90953 | 2535 ft | 126 kts | 12° |
| 2026-04-20 16:08 | 59.52063 | 17.91256 | 2364 ft | 121 kts | 13° |
| 2026-04-20 16:08 | 59.52888 | 17.91556 | 2198 ft | 120 kts | 12° |
| 2026-04-20 16:08 | 59.53712 | 17.91852 | 2027 ft | 120 kts | 13° |
| 2026-04-20 16:08 | 59.54520 | 17.92145 | 1867 ft | 119 kts | 12° |
| 2026-04-20 16:09 | 59.55339 | 17.92437 | 1705 ft | 120 kts | 12° |
| 2026-04-20 16:09 | 59.56152 | 17.92731 | 1529 ft | 120 kts | 11° |
| 2026-04-20 16:09 | 59.56975 | 17.93028 | 1367 ft | 121 kts | 12° |
| 2026-04-20 16:09 | 59.57744 | 17.93306 | 1208 ft | 117 kts | 12° |
| 2026-04-20 16:10 | 59.58575 | 17.93606 | 1039 ft | 117 kts | 12° |
| 2026-04-20 16:10 | 59.59392 | 17.93903 | 853 ft | 122 kts | 11° |
| 2026-04-20 16:10 | 59.60212 | 17.94197 | 687 ft | 118 kts | 10° |
| 2026-04-20 16:10 | 59.61031 | 17.94494 | 530 ft | 121 kts | 12° |
| 2026-04-20 16:11 | 59.61849 | 17.94796 | 336 ft | 118 kts | 12° |
| 2026-04-20 16:11 | 59.62633 | 17.95080 | 182 ft | 114 kts | 12° |
| 2026-04-20 16:11 | 59.63356 | 17.95348 | 141 ft | 78 kts | 9° |
| 2026-04-20 16:11 | 59.63598 | 17.95433 | 144 ft | 0 kts | 9° |
| 2026-04-20 16:12 | 59.63695 | 17.95466 | 145 ft | 17 kts | 9° |
| 2026-04-20 16:12 | 59.63823 | 17.95504 | 145 ft | 20 kts | 8° |
| 2026-04-20 16:12 | 59.63963 | 17.95550 | 143 ft | 21 kts | 7° |
| 2026-04-20 16:12 | 59.64113 | 17.95539 | 143 ft | 22 kts | 356° |
| 2026-04-20 16:13 | 59.64270 | 17.95435 | 138 ft | 22 kts | 339° |
| 2026-04-20 16:13 | 59.64288 | 17.95421 | 138 ft | 0 kts | 339° |
| 2026-04-20 16:14 | 59.64310 | 17.95405 | 138 ft | 5 kts | 339° |
| 2026-04-20 16:14 | 59.64358 | 17.95370 | 138 ft | 9 kts | 340° |
| 2026-04-20 16:14 | 59.64430 | 17.95330 | 138 ft | 12 kts | 354° |
| 2026-04-20 16:14 | 59.64519 | 17.95328 | 138 ft | 14 kts | 338° |
| 2026-04-20 16:15 | 59.64529 | 17.95163 | 138 ft | 15 kts | 240° |
| 2026-04-20 16:15 | 59.64467 | 17.94959 | 138 ft | 19 kts | 239° |
| 2026-04-20 16:15 | 59.64302 | 17.94449 | 137 ft | 25 kts | 238° |
| 2026-04-20 16:16 | 59.64211 | 17.94171 | 137 ft | 25 kts | 238° |
| 2026-04-20 16:16 | 59.64118 | 17.93871 | 137 ft | 26 kts | 238° |
| 2026-04-20 16:16 | 59.64016 | 17.93563 | 137 ft | 27 kts | 242° |
| 2026-04-20 16:16 | 59.64003 | 17.93248 | 137 ft | 23 kts | 295° |
| 2026-04-20 16:17 | 59.64074 | 17.92983 | 137 ft | 21 kts | 296° |
| 2026-04-20 16:17 | 59.64144 | 17.92718 | 137 ft | 23 kts | 294° |
| 2026-04-20 16:17 | 59.64214 | 17.92480 | 137 ft | 14 kts | 336° |
| 2026-04-20 16:17 | 59.64249 | 17.92496 | 137 ft | 0 kts | 29° |
| 2026-04-20 16:18 | 59.64258 | 17.92506 | 137 ft | 4 kts | 29° |
| 2026-04-20 16:18 | 59.64291 | 17.92544 | 137 ft | 7 kts | 32° |
| 2026-04-20 16:18 | 59.64336 | 17.92625 | 137 ft | 10 kts | 47° |
| 2026-04-20 16:19 | 59.64370 | 17.92698 | 137 ft | 1 kts | 46° |
| 2026-04-20 16:19 | 59.64382 | 17.92722 | 137 ft | 4 kts | 45° |
| 2026-04-20 16:19 | 59.64393 | 17.92743 | 137 ft | 0 kts | 45° |
| 2026-04-20 16:19 | 59.64394 | 17.92746 | 137 ft | 0 kts | 45° |